AirNav   Air Wisconsin Up To $57,000 Bonus
 
 905 users online  

FA00 Advent Health Winter Garden ER Heliport
Winter Garden, Florida, USA

GOING TO WINTER GARDEN?


FAA INFORMATION EFFECTIVE 30 JANUARY 2020

Location

FAA Identifier: FA00
Lat/Long: 28-31-23.2000N 081-35-20.5000W
28-31.386667N 081-35.341667W
28.5231111,-81.5890278
(estimated)
Elevation: 127 ft. / 39 m (estimated)
Time zone: UTC -5 (UTC -4 during Daylight Saving Time)
Zip code: 34787

Heliport Operations

Heliport use: Private use. Permission required prior to landing
Activation date: 10/2016
Control tower: no
ARTCC: JACKSONVILLE CENTER
FSS: SAINT PETERSBURG FLIGHT SERVICE STATION
Attendance: 
Wind indicator: yes
Segmented circle: no

Heliport Communications

WX ASOS at ORL (14 nm E): PHONE 407-658-6753
WX ASOS at MCO (16 nm E): PHONE 407-855-5235
WX AWOS-3PT at ISM (16 nm SE): 128.775 (407-847-0533)

Nearby radio navigation aids

VOR radial/distance  VOR name  Freq  Var
ORLr265/13.4ORLANDO VORTAC112.2000E
LALr034/39.3LAKELAND VORTAC116.0001E

Heliport Services

Runway Information

Helipad H1

Dimensions: 64 x 64 ft. / 20 x 20 m
Surface: concrete
Runway edge lights: PERI
RWY ARPT CALL TO ACT LGTS 407-303-1610.
Traffic pattern: leftleft

Heliport Ownership and Management from official FAA records

Ownership: Privately-owned
Owner: ADVENTIST HEALTH SYSTEM
901 NORTH LAKE DESTINY RD STE 375
MAITLAND, FL 32751-6135
Phone 407-303-1610
Manager: RICHARD NETTLES
601 E ROLLINS BOX 161
ORLANDO, FL 32803
Phone 407-303-1610

Additional Remarks

FOR CD CTC ORLANDO APCH AT 407-852-7553.

Instrument Procedures

There are no published instrument procedures at FA00.

Some nearby airports with instrument procedures:

X04 - Orlando Apopka Airport (11 nm N)
KORL - Executive Airport (14 nm E)
KMCO - Orlando International Airport (16 nm E)
KISM - Kissimmee Gateway Airport (16 nm SE)
KLEE - Leesburg International Airport (21 nm NW)
 
Loc | Ops | Rwys | IFR | FBO | Links
Com | Nav | Svcs | Stats | Notes
Aerial photo
No photo
 
Airport distance calculator
Flying to Advent Health Winter Garden ER Heliport? Find the distance to fly.

From to FA00

Sunrise and sunset
Times for 16-Feb-2020
 Local
(UTC-5)
 Zulu
(UTC)
Morning civil twilight06:4111:41
Sunrise07:0512:05
Sunset18:1623:16
Evening civil twilight18:4023:40

Current date and time
Zulu (UTC)  17-Feb-2020 01:46:53
Local (UTC-5)  16-Feb-2020 20:46:53
 
METAR
KORL 
14nm E 
170053Z 31007KT 10SM -RA FEW017 BKN045 OVC110 21/18 A3008 RMK AO2 RAB2359 SLP188 P0008 T02060183
KMCO 
15nm SE 
170107Z 30008KT 10SM -RA FEW014 FEW039 BKN050 OVC170 21/18 A3008 RMK AO2 P0009 T02110183
KISM 
17nm SE 
170122Z 36005KT 10SM BKN029 OVC039 21/20 A3009 RMK AO2 RAE00 PNO $
KLEE 
21nm NW 
170124Z AUTO 01007KT 10SM BKN027 BKN039 BKN048 21/18 A3010 RMK AO2 T02110178
KSFB 
24nm NE 
170126Z 35008KT 4SM -RA BR FEW020 BKN040 20/19 A3008 RMK AO2 P0036 T02000189 $
TAF
KMCO 
15nm SE 
162100Z 1621/1724 14010KT P6SM VCSH SCT040 BKN070 BKN250 FM162300 08007KT P6SM VCSH SCT035 BKN090 BKN250 TEMPO 1623/1702 3SM SHRA SCT020 BKN030 OVC060 FM170600 VRB03KT 6SM BR FEW015 SCT100 BKN200 TEMPO 1710/1714 3SM BR FEW004 BKN008 FM171500 VRB04KT P6SM BKN020 BKN040
KISM 
17nm SE 
162000Z 1620/1718 15010KT P6SM VCSH SCT040 BKN070 FM162300 08007KT P6SM VCSH SCT035 BKN090 BKN250 TEMPO 1700/1703 3SM SHRA SCT020 BKN030 OVC060 FM170600 VRB03KT 6SM BR FEW008 SCT015 BKN200 TEMPO 1710/1714 3SM BR FEW004 BKN008 FM171500 VRB04KT P6SM BKN020 BKN040
NOTAMs
Click for the latest NOTAMs
NOTAMs are issued by the DoD/FAA and will open in a separate window not controlled by AirNav.

 

 
 

Would you like to see your business listed on this page?

 If your business provides an interesting product or service to pilots, flight crews, aircraft, or users of the Advent Health Winter Garden ER Heliport, you should consider listing it here.  To start the listing process, click on the button below
 
Add a business
 

Other Pages about Advent Health Winter Garden ER Heliport

Update a link
 
Copyright © AirNav, LLC. All rights reserved. Privacy Policy  Contact